createdAt,value
2022-11-05T00:01:59.467Z,-64
2022-11-05T00:04:44.282Z,-64
2022-11-05T00:07:36.614Z,-64
2022-11-05T00:10:13.488Z,-64
2022-11-05T00:12:58.691Z,-64
2022-11-05T00:15:43.457Z,-64
2022-11-05T00:18:09.759Z,-64
2022-11-05T00:20:36.136Z,-64
2022-11-05T00:23:22.391Z,-64
2022-11-05T00:26:03.356Z,-64
2022-11-05T00:28:30.854Z,-64
2022-11-05T00:31:15.116Z,-64
2022-11-05T00:33:42.875Z,-64
2022-11-05T00:36:10.544Z,-64
2022-11-05T00:38:37.038Z,-64
2022-11-05T00:41:03.329Z,-64
2022-11-05T00:43:48.069Z,-64
2022-11-05T00:46:14.416Z,-64
2022-11-05T00:48:59.160Z,-64
2022-11-05T00:51:25.426Z,-64
2022-11-05T00:53:51.727Z,-64
2022-11-05T00:56:18.133Z,-64
2022-11-05T00:58:44.491Z,-64
2022-11-05T01:01:11.550Z,-64
2022-11-05T01:03:39.580Z,-64
2022-11-05T01:06:14.548Z,-64
2022-11-05T01:08:43.212Z,-64
2022-11-05T01:11:34.080Z,-63
2022-11-05T01:14:02.000Z,-64
2022-11-05T01:16:28.357Z,-63
2022-11-05T01:18:54.650Z,-64
2022-11-05T01:21:21.003Z,-63
2022-11-05T01:23:47.355Z,-63
2022-11-05T01:26:13.696Z,-64
2022-11-05T01:28:40.176Z,-64
2022-11-05T01:31:06.593Z,-64
2022-11-05T01:33:33.027Z,-64
2022-11-05T01:35:59.375Z,-64
2022-11-05T01:38:25.650Z,-63
2022-11-05T01:40:52.083Z,-64
2022-11-05T01:43:23.582Z,-63
2022-11-05T01:45:52.931Z,-63
2022-11-05T01:48:31.881Z,-63
2022-11-05T01:51:06.854Z,-63
2022-11-05T01:53:47.395Z,-63
2022-11-05T01:56:24.173Z,-64
2022-11-05T01:59:08.755Z,-64
2022-11-05T02:01:35.750Z,-64
2022-11-05T02:04:06.782Z,-64
2022-11-05T02:06:36.950Z,-63
2022-11-05T02:09:07.108Z,-63
2022-11-05T02:11:33.996Z,-63
2022-11-05T02:14:00.683Z,-63
2022-11-05T02:16:26.945Z,-63
2022-11-05T02:19:05.120Z,-63
2022-11-05T02:21:52.811Z,-63
2022-11-05T02:24:49.721Z,-63
2022-11-05T02:27:32.554Z,-63
2022-11-05T02:30:05.172Z,-63
2022-11-05T02:32:43.361Z,-63
2022-11-05T02:35:41.577Z,-63
2022-11-05T02:38:25.462Z,-63
2022-11-05T02:41:08.538Z,-63
2022-11-05T02:43:52.634Z,-63
2022-11-05T02:46:29.541Z,-63
2022-11-05T02:49:06.510Z,-63
2022-11-05T02:51:49.879Z,-63
2022-11-05T02:54:22.328Z,-63
2022-11-05T02:56:53.189Z,-63
2022-11-05T02:59:19.625Z,-63
2022-11-05T03:01:47.487Z,-63
2022-11-05T03:04:17.346Z,-63
2022-11-05T03:07:22.245Z,-63
2022-11-05T03:10:13.884Z,-63
2022-11-05T03:12:47.293Z,-63
2022-11-05T03:15:35.382Z,-63
2022-11-05T03:18:43.165Z,-63
2022-11-05T03:21:17.893Z,-63
2022-11-05T03:23:55.211Z,-63
2022-11-05T03:26:31.192Z,-63
2022-11-05T03:29:08.679Z,-63
2022-11-05T03:31:39.630Z,-63
2022-11-05T03:34:08.628Z,-63
2022-11-05T03:36:42.112Z,-63
2022-11-05T03:39:14.069Z,-63
2022-11-05T03:41:43.882Z,-63
2022-11-05T03:44:14.795Z,-63
2022-11-05T03:46:49.143Z,-63
2022-11-05T03:49:27.651Z,-63
2022-11-05T03:52:02.991Z,-63
2022-11-05T03:54:29.725Z,-63
2022-11-05T03:57:08.770Z,-63
2022-11-05T03:59:46.447Z,-63
2022-11-05T04:02:15.220Z,-63
2022-11-05T04:04:42.082Z,-63
2022-11-05T04:07:28.316Z,-63
2022-11-05T04:10:13.014Z,-65
2022-11-05T04:12:57.772Z,-63
2022-11-05T04:15:24.677Z,-63
2022-11-05T04:17:51.226Z,-63
2022-11-05T04:20:35.912Z,-63
2022-11-05T04:23:23.766Z,-63
2022-11-05T04:25:50.426Z,-63
2022-11-05T04:28:17.000Z,-63
2022-11-05T04:30:44.460Z,-63
2022-11-05T04:33:14.825Z,-63
2022-11-05T04:35:43.775Z,-63
2022-11-05T04:38:15.476Z,-63
2022-11-05T04:40:41.894Z,-63
2022-11-05T04:43:14.652Z,-63
2022-11-05T04:45:41.907Z,-63
2022-11-05T04:48:08.254Z,-63
2022-11-05T04:50:35.108Z,-63
2022-11-05T04:53:01.435Z,-63
2022-11-05T04:55:28.382Z,-63
2022-11-05T04:57:54.945Z,-63
2022-11-05T05:00:23.079Z,-63
2022-11-05T05:02:50.041Z,-63
2022-11-05T05:05:16.655Z,-63
2022-11-05T05:07:43.029Z,-63
2022-11-05T05:10:10.778Z,-63
2022-11-05T05:12:37.263Z,-63
2022-11-05T05:15:04.288Z,-63
2022-11-05T05:17:30.660Z,-63
2022-11-05T05:20:15.566Z,-63
2022-11-05T05:22:41.958Z,-63
2022-11-05T05:25:08.451Z,-63
2022-11-05T05:27:34.832Z,-63
2022-11-05T05:30:01.183Z,-63
2022-11-05T05:32:27.738Z,-63
2022-11-05T05:34:54.070Z,-63
2022-11-05T05:37:20.510Z,-63
2022-11-05T05:39:47.775Z,-63
2022-11-05T05:42:14.090Z,-63
2022-11-05T05:44:40.480Z,-63
2022-11-05T05:47:06.786Z,-63
2022-11-05T05:49:33.079Z,-63
2022-11-05T05:51:59.334Z,-63
2022-11-05T05:54:31.760Z,-63
2022-11-05T05:56:59.090Z,-63
2022-11-05T05:59:25.400Z,-63
2022-11-05T06:01:51.864Z,-63
2022-11-05T06:04:18.304Z,-63
2022-11-05T06:06:46.789Z,-63
2022-11-05T06:09:13.992Z,-63
2022-11-05T06:11:40.664Z,-63
2022-11-05T06:14:10.257Z,-63
2022-11-05T06:16:38.780Z,-63
2022-11-05T06:19:06.367Z,-63
2022-11-05T06:21:33.000Z,-63
2022-11-05T06:24:00.545Z,-63
2022-11-05T06:26:26.826Z,-63
2022-11-05T06:28:53.147Z,-63
2022-11-05T06:31:19.954Z,-63
2022-11-05T06:33:47.223Z,-63
2022-11-05T06:36:18.952Z,-63
2022-11-05T06:38:45.376Z,-63
2022-11-05T06:41:11.839Z,-63
2022-11-05T06:43:38.624Z,-63
2022-11-05T06:46:05.046Z,-63
2022-11-05T06:48:31.375Z,-63
2022-11-05T06:50:58.154Z,-63
2022-11-05T06:53:25.045Z,-63
2022-11-05T06:55:51.407Z,-63
2022-11-05T06:58:17.863Z,-63
2022-11-05T07:00:44.269Z,-63
2022-11-05T07:03:12.301Z,-63
2022-11-05T07:05:43.409Z,-65
2022-11-05T07:08:09.751Z,-64
2022-11-05T07:10:36.114Z,-62
2022-11-05T07:13:06.754Z,-61
2022-11-05T07:15:34.917Z,-62
2022-11-05T07:18:01.574Z,-62
2022-11-05T07:20:33.252Z,-62
2022-11-05T07:23:06.170Z,-62
2022-11-05T07:25:33.717Z,-62
2022-11-05T07:28:00.731Z,-63
2022-11-05T07:30:27.947Z,-62
2022-11-05T07:32:54.611Z,-65
2022-11-05T07:35:21.316Z,-62
2022-11-05T07:37:50.007Z,-63
2022-11-05T07:40:20.909Z,-62
2022-11-05T07:42:50.285Z,-64
2022-11-05T07:45:17.375Z,-62
2022-11-05T07:47:58.142Z,-62
2022-11-05T07:50:27.217Z,-65
2022-11-05T07:52:53.838Z,-65
2022-11-05T07:55:20.362Z,-65
2022-11-05T07:57:48.859Z,-63
2022-11-05T08:00:18.051Z,-64
2022-11-05T08:02:44.723Z,-63
2022-11-05T08:05:11.317Z,-62
2022-11-05T08:07:37.625Z,-62
2022-11-05T08:10:04.750Z,-65
2022-11-05T08:12:32.293Z,-66
2022-11-05T08:14:58.707Z,-65
2022-11-05T08:17:25.046Z,-62
2022-11-05T08:19:51.560Z,-62
2022-11-05T08:22:17.927Z,-61
2022-11-05T08:24:44.238Z,-64
2022-11-05T08:27:10.509Z,-62
2022-11-05T08:29:36.789Z,-64
2022-11-05T08:32:03.210Z,-65
2022-11-05T08:34:29.504Z,-62
2022-11-05T08:36:55.779Z,-62
2022-11-05T08:39:22.126Z,-62
2022-11-05T08:41:48.591Z,-62
2022-11-05T08:44:14.943Z,-62
2022-11-05T08:46:41.787Z,-62
2022-11-05T08:49:08.377Z,-62
2022-11-05T08:51:34.830Z,-62
2022-11-05T08:54:01.121Z,-62
2022-11-05T08:56:27.415Z,-62
2022-11-05T08:58:53.856Z,-62
2022-11-05T09:01:20.304Z,-62
2022-11-05T09:03:49.513Z,-62
2022-11-05T09:06:15.804Z,-63
2022-11-05T09:08:42.163Z,-62
2022-11-05T09:11:08.504Z,-63
2022-11-05T09:13:34.912Z,-63
2022-11-05T09:16:01.283Z,-63
2022-11-05T09:18:28.244Z,-63
2022-11-05T09:20:54.608Z,-63
2022-11-05T09:23:20.973Z,-63
2022-11-05T09:25:47.631Z,-63
2022-11-05T09:28:24.455Z,-62
2022-11-05T09:30:52.643Z,-63
2022-11-05T09:33:21.853Z,-64
2022-11-05T09:35:48.301Z,-64
2022-11-05T09:38:14.713Z,-65
2022-11-05T09:41:04.374Z,-64
2022-11-05T09:43:40.327Z,-64
2022-11-05T09:46:13.059Z,-63
2022-11-05T09:48:42.233Z,-64
2022-11-05T09:51:17.965Z,-64
2022-11-05T09:53:48.396Z,-64
2022-11-05T09:56:30.462Z,-65
2022-11-05T09:59:02.290Z,-64
2022-11-05T10:01:35.791Z,-62
2022-11-05T10:04:09.160Z,-63
2022-11-05T10:06:41.756Z,-64
2022-11-05T10:09:16.146Z,-65
2022-11-05T10:11:48.155Z,-64
2022-11-05T10:14:25.576Z,-67
2022-11-05T10:17:01.445Z,-65
2022-11-05T10:19:43.175Z,-66
2022-11-05T10:22:16.430Z,-66
2022-11-05T10:24:46.320Z,-66
2022-11-05T10:27:35.418Z,-65
2022-11-05T10:30:01.995Z,-65
2022-11-05T10:32:33.747Z,-66
2022-11-05T10:35:02.538Z,-66
2022-11-05T10:37:30.480Z,-64
2022-11-05T10:39:57.114Z,-65
2022-11-05T10:42:42.085Z,-66
2022-11-05T10:45:25.428Z,-65
2022-11-05T10:48:13.017Z,-64
2022-11-05T10:50:39.893Z,-65
2022-11-05T10:53:20.602Z,-65
2022-11-05T10:55:49.935Z,-64
2022-11-05T10:58:16.191Z,-64
2022-11-05T11:00:44.948Z,-66
2022-11-05T11:03:42.366Z,-69
2022-11-05T11:06:23.785Z,-70
2022-11-05T11:08:52.222Z,-68
2022-11-05T11:11:34.366Z,-68
2022-11-05T11:14:14.028Z,-69
2022-11-05T11:16:45.955Z,-69
2022-11-05T11:19:38.725Z,-68
2022-11-05T11:22:04.980Z,-69
2022-11-05T11:24:41.341Z,-69
2022-11-05T11:27:19.132Z,-71
2022-11-05T11:29:50.904Z,-69
2022-11-05T11:32:20.450Z,-70
2022-11-05T11:34:52.114Z,-70
2022-11-05T11:37:28.496Z,-69
2022-11-05T11:40:12.956Z,-70
2022-11-05T11:42:41.388Z,-70
2022-11-05T11:45:18.067Z,-70
2022-11-05T11:47:49.854Z,-72
2022-11-05T11:50:33.491Z,-70
2022-11-05T11:53:21.193Z,-70
2022-11-05T11:55:59.543Z,-71
2022-11-05T11:58:56.006Z,-70
2022-11-05T12:01:53.112Z,-70
2022-11-05T12:05:07.794Z,-68
2022-11-05T12:07:47.949Z,-68
2022-11-05T12:10:46.366Z,-68
2022-11-05T12:13:18.742Z,-69
2022-11-05T12:15:53.130Z,-70
2022-11-05T12:18:33.967Z,-71
2022-11-05T12:25:51.664Z,-66
2022-11-05T12:28:36.065Z,-69
2022-11-05T12:31:05.533Z,-66
2022-11-05T12:33:45.650Z,-67
2022-11-05T12:36:22.758Z,-67
2022-11-05T12:39:24.139Z,-65
2022-11-05T12:42:02.527Z,-66
2022-11-05T12:44:36.516Z,-65
2022-11-05T12:47:10.081Z,-66
2022-11-05T12:49:46.604Z,-66
2022-11-05T12:52:12.862Z,-66
2022-11-05T12:55:09.168Z,-67
2022-11-05T12:57:40.060Z,-66
2022-11-05T13:00:18.618Z,-68
2022-11-05T13:02:54.544Z,-67
2022-11-05T13:05:41.541Z,-67
2022-11-05T13:08:30.326Z,-67
2022-11-05T13:11:10.215Z,-67
2022-11-05T13:13:42.019Z,-66
2022-11-05T13:16:30.683Z,-67
2022-11-05T13:19:02.967Z,-66
2022-11-05T13:21:30.508Z,-66
2022-11-05T13:24:04.944Z,-66
2022-11-05T13:27:10.868Z,-66
2022-11-05T13:29:53.579Z,-66
2022-11-05T13:32:31.796Z,-66
2022-11-05T13:35:04.741Z,-66
2022-11-05T13:37:54.806Z,-65
2022-11-05T13:40:36.515Z,-65
2022-11-05T13:43:12.365Z,-66
2022-11-05T13:46:06.158Z,-65
2022-11-05T13:48:51.891Z,-66
2022-11-05T13:51:38.628Z,-67
2022-11-05T13:54:36.664Z,-68
2022-11-05T13:57:41.198Z,-67
2022-11-05T14:00:16.912Z,-68
2022-11-05T14:02:54.200Z,-68
2022-11-05T14:05:31.384Z,-68
2022-11-05T14:08:00.587Z,-67
2022-11-05T14:10:43.091Z,-67
2022-11-05T14:13:28.875Z,-67
2022-11-05T14:16:00.055Z,-68
2022-11-05T14:18:39.572Z,-69
2022-11-05T14:21:28.778Z,-68
2022-11-05T14:23:57.534Z,-66
2022-11-05T14:26:29.683Z,-68
2022-11-05T14:29:05.165Z,-66
2022-11-05T14:32:07.001Z,-68
2022-11-05T14:34:53.502Z,-68
2022-11-05T14:37:24.218Z,-67
2022-11-05T14:39:51.158Z,-67
2022-11-05T14:42:24.471Z,-66
2022-11-05T14:44:58.431Z,-66
2022-11-05T14:47:28.673Z,-66
2022-11-05T14:50:01.756Z,-66
2022-11-05T14:52:28.778Z,-66
2022-11-05T14:54:58.026Z,-66
2022-11-05T14:57:42.454Z,-66
2022-11-05T15:00:40.480Z,-66
2022-11-05T15:03:33.696Z,-66
2022-11-05T15:06:07.671Z,-66
2022-11-05T15:08:54.232Z,-66
2022-11-05T15:11:29.345Z,-65
2022-11-05T15:13:55.596Z,-66
2022-11-05T15:16:30.510Z,-66
2022-11-05T15:18:58.115Z,-67
2022-11-05T15:21:25.179Z,-70
2022-11-05T15:23:56.688Z,-66
2022-11-05T15:26:42.902Z,-67
2022-11-05T15:29:22.143Z,-67
2022-11-05T15:31:49.224Z,-67
2022-11-05T15:34:19.448Z,-68
2022-11-05T15:36:50.662Z,-65
2022-11-05T15:39:29.331Z,-68
2022-11-05T15:41:57.129Z,-67
2022-11-05T15:44:32.895Z,-67
2022-11-05T15:47:13.035Z,-67
2022-11-05T15:49:54.439Z,-66
2022-11-05T15:52:31.035Z,-67
2022-11-05T15:55:25.349Z,-68
2022-11-05T15:58:10.664Z,-67
2022-11-05T16:00:37.458Z,-66
2022-11-05T16:03:14.639Z,-66
2022-11-05T16:05:46.307Z,-66
2022-11-05T16:08:18.844Z,-67
2022-11-05T16:10:51.654Z,-66
2022-11-05T16:13:38.338Z,-67
2022-11-05T16:16:13.999Z,-66
2022-11-05T16:18:41.361Z,-67
2022-11-05T16:21:15.919Z,-66
2022-11-05T16:23:53.889Z,-65
2022-11-05T16:27:00.618Z,-67
2022-11-05T16:29:53.670Z,-66
2022-11-05T16:32:30.797Z,-66
2022-11-05T16:35:01.284Z,-66
2022-11-05T16:37:32.343Z,-67
2022-11-05T16:39:58.693Z,-67
2022-11-05T16:42:26.018Z,-68
2022-11-05T16:44:54.873Z,-67
2022-11-05T16:47:22.442Z,-67
2022-11-05T16:49:49.732Z,-67
2022-11-05T16:52:16.505Z,-66
2022-11-05T16:54:42.847Z,-65
2022-11-05T16:57:26.891Z,-69
2022-11-05T16:59:54.522Z,-66
2022-11-05T17:02:21.327Z,-66
2022-11-05T17:04:47.983Z,-66
2022-11-05T17:07:14.408Z,-67
2022-11-05T17:09:40.737Z,-67
2022-11-05T17:12:07.122Z,-66
2022-11-05T17:14:33.449Z,-66
2022-11-05T17:17:01.094Z,-65
2022-11-05T17:19:27.794Z,-67
2022-11-05T17:21:54.198Z,-66
2022-11-05T17:24:20.542Z,-65
2022-11-05T17:26:46.986Z,-66
2022-11-05T17:29:13.438Z,-66
2022-11-05T17:31:40.852Z,-65
2022-11-05T17:34:08.780Z,-66
2022-11-05T17:36:35.199Z,-66
2022-11-05T17:39:01.658Z,-66
2022-11-05T17:41:28.093Z,-66
2022-11-05T17:43:56.595Z,-65
2022-11-05T17:46:23.540Z,-65
2022-11-05T17:48:50.063Z,-67
2022-11-05T17:51:18.492Z,-66
2022-11-05T17:53:47.351Z,-67
2022-11-05T17:56:24.596Z,-69
2022-11-05T17:58:55.775Z,-64
2022-11-05T18:01:34.582Z,-66
2022-11-05T18:04:07.175Z,-67
2022-11-05T18:06:35.512Z,-66
2022-11-05T18:09:02.089Z,-66
2022-11-05T18:11:28.435Z,-66
2022-11-05T18:13:54.828Z,-65
2022-11-05T18:16:21.196Z,-66
2022-11-05T18:18:49.127Z,-67
2022-11-05T18:21:15.702Z,-64
2022-11-05T18:23:42.487Z,-64
2022-11-05T18:26:13.885Z,-63
2022-11-05T18:28:40.417Z,-64
2022-11-05T18:31:20.536Z,-63
2022-11-05T18:33:48.172Z,-66
2022-11-05T18:36:19.083Z,-63
2022-11-05T18:38:45.787Z,-63
2022-11-05T18:41:12.136Z,-63
2022-11-05T18:43:38.418Z,-63
2022-11-05T18:46:06.066Z,-63
2022-11-05T18:48:32.401Z,-63
2022-11-05T18:51:01.818Z,-63
2022-11-05T18:53:28.586Z,-68
2022-11-05T18:55:54.938Z,-63
2022-11-05T18:58:21.272Z,-65
2022-11-05T19:00:47.656Z,-66
2022-11-05T19:03:13.971Z,-65
2022-11-05T19:05:40.259Z,-67
2022-11-05T19:08:06.646Z,-65
2022-11-05T19:10:33.212Z,-64
2022-11-05T19:12:59.560Z,-64
2022-11-05T19:15:25.995Z,-67
2022-11-05T19:17:52.276Z,-65
2022-11-05T19:20:18.633Z,-65
2022-11-05T19:22:44.954Z,-66
2022-11-05T19:25:11.777Z,-65
2022-11-05T19:27:38.584Z,-67
2022-11-05T19:30:05.334Z,-65
2022-11-05T19:32:31.647Z,-65
2022-11-05T19:34:57.996Z,-65
2022-11-05T19:37:24.292Z,-67
2022-11-05T19:39:50.639Z,-64
2022-11-05T19:42:16.961Z,-67
2022-11-05T19:44:43.689Z,-65
2022-11-05T19:47:10.239Z,-65
2022-11-05T19:49:36.560Z,-65
2022-11-05T19:52:02.867Z,-65
2022-11-05T19:54:29.238Z,-65
2022-11-05T19:56:55.611Z,-66
2022-11-05T19:59:21.910Z,-64
2022-11-05T20:01:48.418Z,-66
2022-11-05T20:04:15.213Z,-65
2022-11-05T20:06:41.559Z,-65
2022-11-05T20:09:27.144Z,-68
2022-11-05T20:11:56.092Z,-66
2022-11-05T20:14:24.371Z,-65
2022-11-05T20:16:51.234Z,-67
2022-11-05T20:19:20.823Z,-65
2022-11-05T20:21:47.716Z,-66
2022-11-05T20:24:24.915Z,-67
2022-11-05T20:26:53.563Z,-65
2022-11-05T20:29:20.016Z,-66
2022-11-05T20:31:46.486Z,-67
2022-11-05T20:34:12.857Z,-66
2022-11-05T20:36:39.448Z,-65
2022-11-05T20:39:05.829Z,-65
2022-11-05T20:41:33.171Z,-67
2022-11-05T20:43:59.549Z,-65
2022-11-05T20:46:25.881Z,-64
2022-11-05T20:48:53.859Z,-65
2022-11-05T20:51:22.498Z,-64
2022-11-05T20:53:49.283Z,-64
2022-11-05T20:56:22.548Z,-64
2022-11-05T20:58:49.296Z,-65
2022-11-05T21:01:16.750Z,-64
2022-11-05T21:03:45.170Z,-66
2022-11-05T21:06:11.922Z,-65
2022-11-05T21:08:38.287Z,-65
2022-11-05T21:11:05.199Z,-65
2022-11-05T21:13:31.565Z,-64
2022-11-05T21:15:59.693Z,-64
2022-11-05T21:18:28.401Z,-64
2022-11-05T21:20:55.619Z,-64
2022-11-05T21:23:21.935Z,-64
2022-11-05T21:25:48.309Z,-64
2022-11-05T21:28:16.096Z,-64
2022-11-05T21:30:47.559Z,-63
2022-11-05T21:33:15.378Z,-63
2022-11-05T21:35:46.695Z,-63
2022-11-05T21:38:15.654Z,-63
2022-11-05T21:40:42.442Z,-63
2022-11-05T21:43:09.029Z,-63
2022-11-05T21:45:38.727Z,-64
2022-11-05T21:48:05.512Z,-63
2022-11-05T21:50:50.220Z,-64
2022-11-05T21:53:35.971Z,-65
2022-11-05T21:56:25.824Z,-63
2022-11-05T21:59:10.635Z,-63
2022-11-05T22:01:37.028Z,-63
2022-11-05T22:04:03.564Z,-63
2022-11-05T22:06:32.779Z,-63
2022-11-05T22:08:59.182Z,-63
2022-11-05T22:11:25.560Z,-63
2022-11-05T22:13:52.609Z,-63
2022-11-05T22:16:18.872Z,-63
2022-11-05T22:18:45.163Z,-63
2022-11-05T22:21:18.496Z,-63
2022-11-05T22:23:44.870Z,-63
2022-11-05T22:26:11.243Z,-63
2022-11-05T22:28:37.543Z,-63
2022-11-05T22:31:03.873Z,-63
2022-11-05T22:33:30.971Z,-63
2022-11-05T22:35:57.275Z,-63
2022-11-05T22:38:23.563Z,-63
2022-11-05T22:40:49.854Z,-63
2022-11-05T22:43:16.173Z,-63
2022-11-05T22:45:43.734Z,-63
2022-11-05T22:48:10.405Z,-66
2022-11-05T22:50:37.066Z,-63
2022-11-05T22:53:03.524Z,-62
2022-11-05T22:55:29.806Z,-63
2022-11-05T22:57:56.256Z,-63
2022-11-05T23:00:34.415Z,-63
2022-11-05T23:03:01.269Z,-64
2022-11-05T23:05:27.799Z,-63
2022-11-05T23:08:12.865Z,-63
2022-11-05T23:10:58.398Z,-65
2022-11-05T23:13:24.691Z,-62
2022-11-05T23:16:09.405Z,-62
2022-11-05T23:18:54.124Z,-62
2022-11-05T23:21:38.995Z,-62
2022-11-05T23:24:05.868Z,-62
2022-11-05T23:26:52.466Z,-62
2022-11-05T23:29:23.456Z,-62
2022-11-05T23:32:09.226Z,-62
2022-11-05T23:34:36.334Z,-62
2022-11-05T23:37:21.862Z,-62
2022-11-05T23:39:48.250Z,-65
2022-11-05T23:42:32.945Z,-65
2022-11-05T23:45:17.701Z,-63
2022-11-05T23:48:02.976Z,-63
2022-11-05T23:50:33.221Z,-63
2022-11-05T23:53:03.448Z,-63
2022-11-05T23:55:30.393Z,-63
2022-11-05T23:57:56.780Z,-62
